createdAt,value
2022-11-30T00:02:00.523Z,43.63
2022-11-30T00:04:48.787Z,45.17
2022-11-30T00:07:36.687Z,41.93
2022-11-30T00:10:24.391Z,42.50
2022-11-30T00:13:11.933Z,42.97
2022-11-30T00:16:01.920Z,44.23
2022-11-30T00:18:49.378Z,42.83
2022-11-30T00:21:39.485Z,43.07
2022-11-30T00:24:27.220Z,43.77
2022-11-30T00:27:14.595Z,47.20
2022-11-30T00:30:02.308Z,47.40
2022-11-30T00:32:49.721Z,48.13
2022-11-30T00:35:37.087Z,46.97
2022-11-30T00:38:25.018Z,46.10
2022-11-30T00:41:12.451Z,45.77
2022-11-30T00:43:59.792Z,45.47
2022-11-30T00:46:47.151Z,47.33
2022-11-30T00:49:34.505Z,47.70
2022-11-30T00:52:21.836Z,47.47
2022-11-30T00:55:09.488Z,46.67
2022-11-30T00:57:57.017Z,46.13
2022-11-30T01:00:44.886Z,45.57
2022-11-30T01:03:33.134Z,47.03
2022-11-30T01:06:20.620Z,47.87
2022-11-30T01:09:09.090Z,46.70
2022-11-30T01:11:57.024Z,46.47
2022-11-30T01:14:44.763Z,48.90
2022-11-30T01:17:32.385Z,44.27
2022-11-30T01:20:19.948Z,48.40
2022-11-30T01:23:07.556Z,48.60
2022-11-30T01:25:55.684Z,49.17
2022-11-30T01:28:46.566Z,47.80
2022-11-30T01:31:34.157Z,45.03
2022-11-30T01:34:21.627Z,48.10
2022-11-30T01:37:09.206Z,48.70
2022-11-30T01:39:56.577Z,48.00
2022-11-30T01:42:48.070Z,48.33
2022-11-30T01:45:35.654Z,49.10
2022-11-30T01:48:23.079Z,48.67
2022-11-30T01:51:10.496Z,47.57
2022-11-30T01:53:58.276Z,48.00
2022-11-30T01:56:48.385Z,45.53
2022-11-30T01:59:35.835Z,45.87
2022-11-30T02:02:34.780Z,45.43
2022-11-30T02:05:22.521Z,45.83
2022-11-30T02:08:11.093Z,44.77
2022-11-30T02:11:00.665Z,47.93
2022-11-30T02:13:55.971Z,45.33
2022-11-30T02:16:49.726Z,48.07
2022-11-30T02:19:57.836Z,46.43
2022-11-30T02:22:59.775Z,45.27
2022-11-30T02:25:53.183Z,46.37
2022-11-30T02:28:49.688Z,47.30
2022-11-30T02:31:52.093Z,43.20
2022-11-30T02:34:41.239Z,42.63
2022-11-30T02:37:29.343Z,43.13
2022-11-30T02:40:18.561Z,44.70
2022-11-30T02:43:06.573Z,43.13
2022-11-30T02:46:02.846Z,45.17
2022-11-30T02:48:53.999Z,44.20
2022-11-30T02:51:42.304Z,42.20
2022-11-30T02:54:29.691Z,44.90
2022-11-30T02:57:17.041Z,44.53
2022-11-30T03:00:07.104Z,45.57
2022-11-30T03:02:55.253Z,47.87
2022-11-30T03:05:42.643Z,43.77
2022-11-30T03:08:29.970Z,44.40
2022-11-30T03:11:17.384Z,46.03
2022-11-30T03:14:04.779Z,44.73
2022-11-30T03:16:52.138Z,43.53
2022-11-30T03:19:39.480Z,44.00
2022-11-30T03:22:26.835Z,45.83
2022-11-30T03:25:14.203Z,42.73
2022-11-30T03:28:02.197Z,43.40
2022-11-30T03:30:50.181Z,43.67
2022-11-30T03:33:37.592Z,44.87
2022-11-30T03:36:24.952Z,45.80
2022-11-30T03:39:12.316Z,44.60
2022-11-30T03:41:59.632Z,43.70
2022-11-30T03:44:47.343Z,43.77
2022-11-30T03:47:34.866Z,45.50
2022-11-30T03:50:22.719Z,45.37
2022-11-30T03:53:10.077Z,46.57
2022-11-30T03:55:59.028Z,44.87
2022-11-30T03:58:46.483Z,45.13
2022-11-30T04:01:33.855Z,46.40
2022-11-30T04:04:21.339Z,44.03
2022-11-30T04:07:08.698Z,46.20
2022-11-30T04:09:56.046Z,45.27
2022-11-30T04:12:43.416Z,46.00
2022-11-30T04:15:30.852Z,43.53
2022-11-30T04:18:18.858Z,44.77
2022-11-30T04:21:07.236Z,46.87
2022-11-30T04:23:54.588Z,46.73
2022-11-30T04:26:41.986Z,47.17
2022-11-30T04:29:29.298Z,48.13
2022-11-30T04:32:16.649Z,46.50
2022-11-30T04:35:04.067Z,47.53
2022-11-30T04:37:51.443Z,45.00
2022-11-30T04:40:42.291Z,43.70
2022-11-30T04:43:29.646Z,44.73
2022-11-30T04:46:17.028Z,47.10
2022-11-30T04:49:04.392Z,45.57
2022-11-30T04:51:51.871Z,44.57
2022-11-30T04:54:39.449Z,44.73
2022-11-30T04:57:26.933Z,42.43
2022-11-30T05:00:15.573Z,44.00
2022-11-30T05:03:03.418Z,44.27
2022-11-30T05:05:50.786Z,42.00
2022-11-30T05:08:38.126Z,42.77
2022-11-30T05:11:25.451Z,43.63
2022-11-30T05:14:12.776Z,44.20
2022-11-30T05:17:00.177Z,41.73
2022-11-30T05:19:47.528Z,43.57
2022-11-30T05:22:35.238Z,44.90
2022-11-30T05:25:22.625Z,40.80
2022-11-30T05:28:10.033Z,42.93
2022-11-30T05:31:02.892Z,43.87
2022-11-30T05:33:51.022Z,42.77
2022-11-30T05:36:38.399Z,43.50
2022-11-30T05:39:25.736Z,41.93
2022-11-30T05:42:13.081Z,41.83
2022-11-30T05:45:06.488Z,44.33
2022-11-30T05:48:00.853Z,41.93
2022-11-30T05:50:49.129Z,45.30
2022-11-30T05:53:36.741Z,43.47
2022-11-30T05:56:24.169Z,43.17
2022-11-30T05:59:11.750Z,39.47
2022-11-30T06:01:59.228Z,42.27
2022-11-30T06:04:47.024Z,42.57
2022-11-30T06:07:34.889Z,56.63
2022-11-30T06:10:22.587Z,41.33
2022-11-30T06:13:10.038Z,45.10
2022-11-30T06:16:01.013Z,44.30
2022-11-30T06:18:48.515Z,40.03
2022-11-30T06:21:35.971Z,40.57
2022-11-30T06:24:23.398Z,40.87
2022-11-30T06:27:10.783Z,40.80
2022-11-30T06:29:58.318Z,38.57
2022-11-30T06:32:49.582Z,39.30
2022-11-30T06:35:37.054Z,40.00
2022-11-30T06:38:25.836Z,41.00
2022-11-30T06:41:13.182Z,40.40
2022-11-30T06:44:00.576Z,40.07
2022-11-30T06:46:47.880Z,41.87
2022-11-30T06:49:35.207Z,38.73
2022-11-30T06:52:22.857Z,42.13
2022-11-30T06:55:10.354Z,39.30
2022-11-30T06:58:05.030Z,41.77
2022-11-30T07:00:52.816Z,41.17
2022-11-30T07:03:41.823Z,43.00
2022-11-30T07:06:29.372Z,43.13
2022-11-30T07:09:16.727Z,42.30
2022-11-30T07:12:04.848Z,41.00
2022-11-30T07:14:53.287Z,42.60
2022-11-30T07:17:40.676Z,39.83
2022-11-30T07:20:28.070Z,42.50
2022-11-30T07:23:34.371Z,46.20
2022-11-30T07:26:22.151Z,42.70
2022-11-30T07:29:09.547Z,43.73
2022-11-30T07:31:56.974Z,42.57
2022-11-30T07:34:44.609Z,40.50
2022-11-30T07:37:32.094Z,40.23
2022-11-30T07:40:19.432Z,41.40
2022-11-30T07:43:06.764Z,39.40
2022-11-30T07:45:54.294Z,42.33
2022-11-30T07:48:41.799Z,41.77
2022-11-30T07:51:29.145Z,40.30
2022-11-30T07:54:16.534Z,40.63
2022-11-30T07:57:03.900Z,39.23
2022-11-30T07:59:51.242Z,39.17
2022-11-30T08:02:38.570Z,39.30
2022-11-30T08:05:25.906Z,38.87
2022-11-30T08:08:13.254Z,39.43
2022-11-30T08:11:01.041Z,38.63
2022-11-30T08:13:48.439Z,36.10
2022-11-30T08:16:37.789Z,36.03
2022-11-30T08:19:25.390Z,36.43
2022-11-30T08:22:12.777Z,33.00
2022-11-30T08:25:00.114Z,36.53
2022-11-30T08:27:47.479Z,36.83
2022-11-30T08:30:34.948Z,35.80
2022-11-30T08:33:22.427Z,37.90
2022-11-30T08:36:11.858Z,39.73
2022-11-30T08:39:00.252Z,36.97
2022-11-30T08:41:47.177Z,39.87
2022-11-30T08:44:34.116Z,34.83
2022-11-30T08:47:21.117Z,37.87
2022-11-30T08:50:08.666Z,38.10
2022-11-30T08:52:56.604Z,40.87
2022-11-30T08:55:59.014Z,34.90
2022-11-30T08:58:46.787Z,34.97
2022-11-30T09:01:33.754Z,34.60
2022-11-30T09:04:20.670Z,32.33
2022-11-30T09:07:07.635Z,34.63
2022-11-30T09:09:54.545Z,35.47
2022-11-30T09:12:42.228Z,30.90
2022-11-30T09:15:29.205Z,31.03
2022-11-30T09:18:16.373Z,29.60
2022-11-30T09:21:09.486Z,30.83
2022-11-30T09:23:56.704Z,30.03
2022-11-30T09:26:44.107Z,33.03
2022-11-30T09:29:31.033Z,34.13
2022-11-30T09:32:17.964Z,32.57
2022-11-30T09:35:08.671Z,30.00
2022-11-30T09:37:59.554Z,30.67
2022-11-30T09:40:49.024Z,31.17
2022-11-30T09:43:50.901Z,30.67
2022-11-30T09:47:04.384Z,28.83
2022-11-30T09:49:51.519Z,27.67
2022-11-30T09:52:43.147Z,27.57
2022-11-30T09:55:39.201Z,30.10
2022-11-30T09:58:53.253Z,29.53
2022-11-30T10:01:44.947Z,30.43
2022-11-30T10:04:32.742Z,30.70
2022-11-30T10:07:47.194Z,29.00
2022-11-30T10:10:52.642Z,29.17
2022-11-30T10:13:58.400Z,30.23
2022-11-30T10:16:51.023Z,27.70
2022-11-30T10:19:49.488Z,27.87
2022-11-30T10:23:12.021Z,28.80
2022-11-30T10:26:09.571Z,28.40
2022-11-30T10:29:24.940Z,27.93
2022-11-30T10:32:26.517Z,28.00
2022-11-30T10:35:32.703Z,28.80
2022-11-30T10:38:36.520Z,27.53
2022-11-30T10:41:29.584Z,27.73
2022-11-30T10:44:31.811Z,28.33
2022-11-30T10:47:31.558Z,27.20
2022-11-30T10:50:18.693Z,27.20
2022-11-30T10:53:06.442Z,26.73
2022-11-30T10:56:22.787Z,27.70
2022-11-30T10:59:45.100Z,26.73
2022-11-30T11:02:40.168Z,25.87
2022-11-30T11:05:28.298Z,27.67
2022-11-30T11:08:24.587Z,27.50
2022-11-30T11:11:32.193Z,27.53
2022-11-30T11:14:22.510Z,26.70
2022-11-30T11:17:18.764Z,26.07
2022-11-30T11:20:44.208Z,27.50
2022-11-30T11:23:39.883Z,27.23
2022-11-30T11:26:28.900Z,27.13
2022-11-30T11:29:31.318Z,29.07
2022-11-30T11:32:22.433Z,27.50
2022-11-30T11:35:46.439Z,27.80
2022-11-30T11:38:41.204Z,27.33
2022-11-30T11:41:33.623Z,30.03
2022-11-30T11:44:23.430Z,28.07
2022-11-30T11:47:26.329Z,28.40
2022-11-30T11:50:13.221Z,28.80
2022-11-30T11:53:22.817Z,26.60
2022-11-30T11:56:18.203Z,28.17
2022-11-30T11:59:17.981Z,30.17
2022-11-30T12:02:07.946Z,27.40
2022-11-30T12:04:59.340Z,28.13
2022-11-30T12:08:03.822Z,28.53
2022-11-30T12:11:01.845Z,28.10
2022-11-30T12:13:49.076Z,30.20
2022-11-30T12:16:44.912Z,30.50
2022-11-30T12:19:58.062Z,30.43
2022-11-30T12:22:59.992Z,29.73
2022-11-30T12:26:15.645Z,31.27
2022-11-30T12:29:02.510Z,30.83
2022-11-30T12:32:20.205Z,31.33
2022-11-30T12:35:45.415Z,30.50
2022-11-30T12:38:50.097Z,29.43
2022-11-30T12:42:29.670Z,31.93
2022-11-30T12:45:32.345Z,30.93
2022-11-30T12:48:42.954Z,29.57
2022-11-30T12:51:38.164Z,32.97
2022-11-30T12:54:50.562Z,32.40
2022-11-30T12:58:03.239Z,32.17
2022-11-30T13:01:02.847Z,33.43
2022-11-30T13:04:02.117Z,33.47
2022-11-30T13:06:53.360Z,34.43
2022-11-30T13:09:45.459Z,38.43
2022-11-30T13:12:37.557Z,39.23
2022-11-30T13:15:27.090Z,42.97
2022-11-30T13:18:22.905Z,41.70
2022-11-30T13:21:10.281Z,50.23
2022-11-30T13:24:11.881Z,47.83
2022-11-30T13:27:04.485Z,39.50
2022-11-30T13:29:52.348Z,48.10
2022-11-30T13:35:54.860Z,39.43
2022-11-30T13:38:42.221Z,41.47
2022-11-30T13:41:32.261Z,49.43
2022-11-30T13:44:32.352Z,42.57
2022-11-30T13:47:35.858Z,45.50
2022-11-30T13:50:32.128Z,47.90
2022-11-30T13:53:21.209Z,51.53
2022-11-30T13:56:21.472Z,55.30
2022-11-30T13:59:23.825Z,44.30
2022-11-30T14:02:42.839Z,45.97
2022-11-30T14:05:32.627Z,42.03
2022-11-30T14:08:22.619Z,45.10
2022-11-30T14:11:18.755Z,44.50
2022-11-30T14:14:45.813Z,45.00
2022-11-30T14:17:34.986Z,44.40
2022-11-30T14:20:26.588Z,45.30
2022-11-30T14:23:23.232Z,44.37
2022-11-30T14:26:16.213Z,47.97
2022-11-30T14:29:10.887Z,44.97
2022-11-30T14:32:16.981Z,48.90
2022-11-30T14:35:09.467Z,46.47
2022-11-30T14:37:58.274Z,49.30
2022-11-30T14:40:52.959Z,46.33
2022-11-30T14:43:39.948Z,42.23
2022-11-30T14:46:27.658Z,43.23
2022-11-30T14:49:16.082Z,57.80
2022-11-30T14:52:04.503Z,46.03
2022-11-30T14:55:14.399Z,49.00
2022-11-30T14:58:16.069Z,47.23
2022-11-30T15:01:23.706Z,46.03
2022-11-30T15:04:14.774Z,45.53
2022-11-30T15:07:02.193Z,43.03
2022-11-30T15:09:55.595Z,45.57
2022-11-30T15:12:45.000Z,45.73
2022-11-30T15:15:35.110Z,46.13
2022-11-30T15:18:28.347Z,44.63
2022-11-30T15:21:24.148Z,44.57
2022-11-30T15:24:11.569Z,41.57
2022-11-30T15:27:11.354Z,44.67
2022-11-30T15:30:15.538Z,45.80
2022-11-30T15:33:07.922Z,42.90
2022-11-30T15:36:31.231Z,46.10
2022-11-30T15:39:10.460Z,45.87
2022-11-30T15:42:01.796Z,47.10
2022-11-30T15:45:16.951Z,45.07
2022-11-30T15:48:30.656Z,52.37
2022-11-30T15:51:27.860Z,46.03
2022-11-30T15:54:20.045Z,45.70
2022-11-30T15:57:09.189Z,47.73
2022-11-30T16:00:20.319Z,50.53
2022-11-30T16:03:09.182Z,46.53
2022-11-30T16:05:58.616Z,46.23
2022-11-30T16:08:47.327Z,47.80
2022-11-30T16:11:35.203Z,49.87
2022-11-30T16:14:24.419Z,53.73
2022-11-30T16:17:11.428Z,50.93
2022-11-30T16:19:59.483Z,49.10
2022-11-30T16:22:48.434Z,54.63
2022-11-30T16:25:35.786Z,54.97
2022-11-30T16:28:23.519Z,49.83
2022-11-30T16:31:18.826Z,53.70
2022-11-30T16:34:08.605Z,55.47
2022-11-30T16:36:56.005Z,53.67
2022-11-30T16:39:43.373Z,52.07
2022-11-30T16:42:30.689Z,51.60
2022-11-30T16:45:24.943Z,53.03
2022-11-30T16:48:12.352Z,53.13
2022-11-30T16:50:59.725Z,55.90
2022-11-30T16:53:47.302Z,51.10
2022-11-30T16:56:34.990Z,49.23
2022-11-30T16:59:22.716Z,48.43
2022-11-30T17:02:17.995Z,51.20
2022-11-30T17:05:06.408Z,49.40
2022-11-30T17:07:53.831Z,52.40
2022-11-30T17:10:42.150Z,50.33
2022-11-30T17:13:29.511Z,48.20
2022-11-30T17:16:16.917Z,49.20
2022-11-30T17:19:04.614Z,48.53
2022-11-30T17:21:52.341Z,49.13
2022-11-30T17:24:39.787Z,50.13
2022-11-30T17:27:27.128Z,46.80
2022-11-30T17:30:15.571Z,46.23
2022-11-30T17:33:03.140Z,43.23
2022-11-30T17:35:51.735Z,46.67
2022-11-30T17:38:39.886Z,43.43
2022-11-30T17:41:27.357Z,41.87
2022-11-30T17:44:14.839Z,56.72
2022-11-30T17:47:02.284Z,47.73
2022-11-30T17:49:49.934Z,42.13
2022-11-30T17:52:37.465Z,41.10
2022-11-30T17:55:25.864Z,41.67
2022-11-30T17:58:13.300Z,40.67
2022-11-30T18:01:00.758Z,40.57
2022-11-30T18:03:48.412Z,39.70
2022-11-30T18:06:35.897Z,41.00
2022-11-30T18:09:24.277Z,40.23
2022-11-30T18:12:12.541Z,39.80
2022-11-30T18:15:00.357Z,40.87
2022-11-30T18:17:47.817Z,41.53
2022-11-30T18:20:34.861Z,40.73
2022-11-30T18:23:21.813Z,42.27
2022-11-30T18:26:13.794Z,41.87
2022-11-30T18:29:04.762Z,40.67
2022-11-30T18:31:51.816Z,41.67
2022-11-30T18:34:38.771Z,42.80
2022-11-30T18:37:26.473Z,41.93
2022-11-30T18:40:14.623Z,40.27
2022-11-30T18:43:02.088Z,41.53
2022-11-30T18:45:49.760Z,40.83
2022-11-30T18:48:37.858Z,40.07
2022-11-30T18:51:27.849Z,40.27
2022-11-30T18:54:22.289Z,40.87
2022-11-30T18:57:15.875Z,41.07
2022-11-30T19:00:29.150Z,40.20
2022-11-30T19:06:51.639Z,40.00
2022-11-30T19:09:40.501Z,39.93
2022-11-30T19:12:27.704Z,42.13
2022-11-30T19:15:19.122Z,39.53
2022-11-30T19:18:09.011Z,42.63
2022-11-30T19:20:56.019Z,39.20
2022-11-30T19:23:43.510Z,41.70
2022-11-30T19:26:30.574Z,40.07
2022-11-30T19:29:17.578Z,40.77
2022-11-30T19:32:04.821Z,41.00
2022-11-30T19:34:52.524Z,41.87
2022-11-30T19:37:43.475Z,42.00
2022-11-30T19:40:34.744Z,40.10
2022-11-30T19:43:27.645Z,39.50
2022-11-30T19:46:16.830Z,40.07
2022-11-30T19:49:03.916Z,40.37
2022-11-30T19:51:50.877Z,40.40
2022-11-30T19:54:37.808Z,39.70
2022-11-30T19:57:24.845Z,39.80
2022-11-30T20:00:12.480Z,40.23
2022-11-30T20:03:00.281Z,39.10
2022-11-30T20:05:50.880Z,40.43
2022-11-30T20:08:38.383Z,41.47
2022-11-30T20:11:25.440Z,45.33
2022-11-30T20:14:16.476Z,60.63
2022-11-30T20:17:04.081Z,45.30
2022-11-30T20:19:51.837Z,39.30
2022-11-30T20:22:39.425Z,39.57
2022-11-30T20:25:26.624Z,40.30
2022-11-30T20:28:13.754Z,39.40
2022-11-30T20:31:02.560Z,38.83
2022-11-30T20:33:50.238Z,40.77
2022-11-30T20:36:37.618Z,39.87
2022-11-30T20:39:24.541Z,39.37
2022-11-30T20:42:11.473Z,38.43
2022-11-30T20:44:58.538Z,40.50
2022-11-30T20:47:45.626Z,39.57
2022-11-30T20:50:32.544Z,43.20
2022-11-30T20:53:19.625Z,44.13
2022-11-30T20:56:06.937Z,44.07
2022-11-30T20:58:53.921Z,41.80
2022-11-30T21:01:42.919Z,42.00
2022-11-30T21:04:29.883Z,42.47
2022-11-30T21:07:16.926Z,39.90
2022-11-30T21:10:05.076Z,40.47
2022-11-30T21:12:52.559Z,40.47
2022-11-30T21:15:39.562Z,42.10
2022-11-30T21:18:26.691Z,40.23
2022-11-30T21:21:25.558Z,39.70
2022-11-30T21:24:12.536Z,40.47
2022-11-30T21:26:59.762Z,41.13
2022-11-30T21:29:46.792Z,45.53
2022-11-30T21:32:33.756Z,59.60
2022-11-30T21:35:20.781Z,55.97
2022-11-30T21:38:07.716Z,42.17
2022-11-30T21:40:56.729Z,40.97
2022-11-30T21:43:43.822Z,42.07
2022-11-30T21:46:30.964Z,42.40
2022-11-30T21:49:18.003Z,49.83
2022-11-30T21:52:04.905Z,46.50
2022-11-30T21:54:53.798Z,45.90
2022-11-30T21:57:40.908Z,45.67
2022-11-30T22:00:27.851Z,46.17
2022-11-30T22:03:19.315Z,49.53
2022-11-30T22:06:11.724Z,44.90
2022-11-30T22:09:08.645Z,45.60
2022-11-30T22:11:57.584Z,46.80
2022-11-30T22:14:45.133Z,52.70
2022-11-30T22:17:32.078Z,53.27
2022-11-30T22:20:19.274Z,47.17
2022-11-30T22:23:06.183Z,47.27
2022-11-30T22:25:53.960Z,47.33
2022-11-30T22:28:43.056Z,48.37
2022-11-30T22:31:36.756Z,49.00
2022-11-30T22:34:23.833Z,44.23
2022-11-30T22:37:10.773Z,44.63
2022-11-30T22:40:02.944Z,44.73
2022-11-30T22:42:51.068Z,45.20
2022-11-30T22:45:40.199Z,46.17
2022-11-30T22:48:30.008Z,44.53
2022-11-30T22:51:24.009Z,43.97
2022-11-30T22:54:11.649Z,42.50
2022-11-30T22:56:58.648Z,45.00
2022-11-30T22:59:45.756Z,45.73
2022-11-30T23:02:32.999Z,44.10
2022-11-30T23:05:19.966Z,44.30
2022-11-30T23:08:06.981Z,43.30
2022-11-30T23:10:58.197Z,42.47
2022-11-30T23:13:45.351Z,44.13
2022-11-30T23:16:32.655Z,42.70
2022-11-30T23:19:19.718Z,42.43
2022-11-30T23:22:06.936Z,42.73
2022-11-30T23:24:53.881Z,41.50
2022-11-30T23:27:41.296Z,43.27
2022-11-30T23:30:28.863Z,41.77
2022-11-30T23:33:16.376Z,42.40
2022-11-30T23:36:04.627Z,41.57
2022-11-30T23:38:58.426Z,41.57
2022-11-30T23:41:45.849Z,40.07
2022-11-30T23:44:33.701Z,41.80
2022-11-30T23:47:21.075Z,41.83
2022-11-30T23:50:09.717Z,42.57
2022-11-30T23:52:56.696Z,43.10
2022-11-30T23:55:43.678Z,41.37
2022-11-30T23:58:31.616Z,41.53
